Time;durP1;ratioP1;P1;durP2;ratioP2;P2;SDS_P1;SDS_P2;PMS_P1;PMS_P2;Temp;Humidity;BMP_temperature;BMP_pressure;BME280_temperature;BME280_humidity;BME280_pressure;Samples;Min_cycle;Max_cycle;Signal;HPM_P1;HPM_P2
2022/10/30 00:02:25;;;;;;;0.70;0.70;;;;;;;;;;5072204;28;20456;-78
2022/10/30 00:04:53;;;;;;;3.20;1.87;;;;;;;;;;5091277;28;20529;-76
2022/10/30 00:07:20;;;;;;;1.83;1.13;;;;;;;;;;5085853;28;20479;-77
2022/10/30 00:09:47;;;;;;;0.70;0.70;;;;;;;;;;5057976;28;20498;-77
2022/10/30 00:12:14;;;;;;;1.00;0.90;;;;;;;;;;5059855;28;20455;-78
2022/10/30 00:14:41;;;;;;;0.70;0.70;;;;;;;;;;5062022;28;20446;-76
2022/10/30 00:17:08;;;;;;;0.80;0.80;;;;;;;;;;5047743;28;20488;-77
2022/10/30 00:19:36;;;;;;;0.73;0.73;;;;;;;;;;5083308;28;20481;-76
2022/10/30 00:22:04;;;;;;;0.70;0.70;;;;;;;;;;5082421;28;20458;-78
2022/10/30 00:24:29;;;;;;;0.70;0.60;;;;;;;;;;5061406;28;21036;-78
2022/10/30 00:26:56;;;;;;;0.70;0.70;;;;;;;;;;5047017;28;20442;-77
2022/10/30 00:29:25;;;;;;;0.70;0.70;;;;;;;;;;5068669;28;20431;-80
2022/10/30 00:31:52;;;;;;;0.80;0.73;;;;;;;;;;5045778;28;20488;-77
2022/10/30 00:34:19;;;;;;;1.47;1.37;;;;;;;;;;5071019;28;20490;-78
2022/10/30 00:36:46;;;;;;;0.70;0.67;;;;;;;;;;5071006;28;20478;-76
2022/10/30 00:39:14;;;;;;;0.77;0.77;;;;;;;;;;5064913;28;20462;-76
2022/10/30 00:41:41;;;;;;;0.80;0.70;;;;;;;;;;5051732;28;20536;-77
2022/10/30 00:44:23;;;;;;;0.70;0.70;;;;;;;;;;5047093;28;21035;-77
2022/10/30 00:46:50;;;;;;;1.60;1.50;;;;;;;;;;5065267;28;20455;-76
2022/10/30 00:49:18;;;;;;;0.83;0.83;;;;;;;;;;5067057;28;20975;-78
2022/10/30 00:51:47;;;;;;;0.80;0.80;;;;;;;;;;5047458;28;20521;-77
2022/10/30 00:54:16;;;;;;;0.70;0.67;;;;;;;;;;5043477;28;20554;-78
2022/10/30 00:56:44;;;;;;;0.70;0.67;;;;;;;;;;5061104;28;20448;-77
2022/10/30 00:59:14;;;;;;;0.70;0.70;;;;;;;;;;5068468;28;21046;-78
2022/10/30 01:01:43;;;;;;;0.70;0.70;;;;;;;;;;5056070;28;20556;-77
2022/10/30 01:04:11;;;;;;;0.80;0.73;;;;;;;;;;5074658;28;20987;-79
2022/10/30 01:06:40;;;;;;;2.10;1.00;;;;;;;;;;5061835;28;20474;-79
2022/10/30 01:09:08;;;;;;;0.80;0.80;;;;;;;;;;5059845;28;20443;-77
2022/10/30 01:11:37;;;;;;;1.57;1.47;;;;;;;;;;5043179;28;20542;-78
2022/10/30 01:14:04;;;;;;;0.70;0.70;;;;;;;;;;5065993;28;20554;-77
2022/10/30 01:16:43;;;;;;;0.90;0.90;;;;;;;;;;5063989;28;20550;-76
2022/10/30 01:19:17;;;;;;;0.80;0.80;;;;;;;;;;5047625;28;20481;-77
2022/10/30 01:21:49;;;;;;;0.93;0.93;;;;;;;;;;5036707;28;20478;-75
2022/10/30 01:24:30;;;;;;;0.70;0.70;;;;;;;;;;5043017;28;20596;-78
2022/10/30 01:27:07;;;;;;;0.80;0.70;;;;;;;;;;5041358;28;20980;-77
2022/10/30 01:29:41;;;;;;;1.17;1.07;;;;;;;;;;5039282;28;20454;-78
2022/10/30 01:32:17;;;;;;;0.70;0.60;;;;;;;;;;5072396;28;20462;-77
2022/10/30 01:34:48;;;;;;;0.90;0.90;;;;;;;;;;5052599;28;20470;-77
2022/10/30 01:37:19;;;;;;;1.00;0.90;;;;;;;;;;5060684;28;20990;-77
2022/10/30 01:39:48;;;;;;;0.70;0.70;;;;;;;;;;5063230;28;20454;-77
2022/10/30 01:42:33;;;;;;;0.70;0.70;;;;;;;;;;5062131;28;20868;-76
2022/10/30 01:45:02;;;;;;;0.80;0.80;;;;;;;;;;5066630;28;20946;-78
2022/10/30 01:47:33;;;;;;;0.73;0.70;;;;;;;;;;5047174;28;20454;-78
2022/10/30 01:50:15;;;;;;;0.70;0.70;;;;;;;;;;5059377;28;20470;-77
2022/10/30 01:52:48;;;;;;;0.90;0.90;;;;;;;;;;5075302;28;20582;-77
2022/10/30 01:55:22;;;;;;;0.80;0.80;;;;;;;;;;5037606;28;20471;-77
2022/10/30 01:57:53;;;;;;;2.30;2.10;;;;;;;;;;5041306;28;20458;-78
2022/10/30 02:00:22;;;;;;;0.80;0.73;;;;;;;;;;5043976;28;20943;-77
2022/10/30 02:02:50;;;;;;;0.77;0.70;;;;;;;;;;5054125;28;20461;-77
2022/10/30 02:05:26;;;;;;;1.20;1.10;;;;;;;;;;5060154;28;20560;-77
2022/10/30 02:07:53;;;;;;;0.80;0.80;;;;;;;;;;5063114;28;20445;-79
2022/10/30 02:10:22;;;;;;;0.80;0.70;;;;;;;;;;5066057;28;20515;-77
2022/10/30 02:12:49;;;;;;;0.80;0.80;;;;;;;;;;5061763;28;20441;-77
2022/10/30 02:15:16;;;;;;;0.70;0.60;;;;;;;;;;5066800;28;20445;-78
2022/10/30 02:17:44;;;;;;;0.70;0.60;;;;;;;;;;5061848;28;20461;-77
2022/10/30 02:20:17;;;;;;;0.73;0.70;;;;;;;;;;5046763;28;20443;-78
2022/10/30 02:22:45;;;;;;;1.00;0.90;;;;;;;;;;5039064;28;20461;-77
2022/10/30 02:25:12;;;;;;;1.13;1.03;;;;;;;;;;5034440;28;20447;-78
2022/10/30 02:27:39;;;;;;;3.63;1.07;;;;;;;;;;5065816;28;20450;-79
2022/10/30 02:30:10;;;;;;;1.00;1.00;;;;;;;;;;5051139;28;20447;-76
2022/10/30 02:32:40;;;;;;;0.80;0.70;;;;;;;;;;5050324;28;20468;-78
2022/10/30 02:35:09;;;;;;;3.13;2.60;;;;;;;;;;5064486;28;20481;-78
2022/10/30 02:37:46;;;;;;;0.73;0.70;;;;;;;;;;5062291;28;20449;-77
2022/10/30 02:40:14;;;;;;;0.90;0.90;;;;;;;;;;5048784;28;20524;-77
2022/10/30 02:42:40;;;;;;;0.70;0.67;;;;;;;;;;5058347;28;20471;-77
2022/10/30 02:45:07;;;;;;;0.80;0.80;;;;;;;;;;5040424;28;20490;-79
2022/10/30 02:47:34;;;;;;;0.80;0.80;;;;;;;;;;5057132;28;20452;-78
2022/10/30 02:50:01;;;;;;;0.87;0.87;;;;;;;;;;5065821;28;20453;-78
2022/10/30 02:52:30;;;;;;;0.80;0.70;;;;;;;;;;5040553;28;20472;-78
2022/10/30 02:55:17;;;;;;;1.00;0.93;;;;;;;;;;5058964;28;20453;-77
2022/10/30 02:57:46;;;;;;;1.47;1.37;;;;;;;;;;5058936;28;20458;-78
2022/10/30 03:00:14;;;;;;;0.80;0.80;;;;;;;;;;5066842;28;20451;-77
2022/10/30 03:02:43;;;;;;;0.80;0.80;;;;;;;;;;5068509;28;20443;-78
2022/10/30 03:05:11;;;;;;;0.80;0.80;;;;;;;;;;5046043;28;20439;-78
2022/10/30 03:07:42;;;;;;;1.60;1.50;;;;;;;;;;5064068;28;20486;-78
2022/10/30 03:10:13;;;;;;;0.83;0.83;;;;;;;;;;5044964;28;20461;-79
2022/10/30 03:12:45;;;;;;;1.10;1.00;;;;;;;;;;5057959;28;20446;-77
2022/10/30 03:15:15;;;;;;;0.90;0.90;;;;;;;;;;5038945;28;20465;-77
2022/10/30 03:17:46;;;;;;;0.90;0.90;;;;;;;;;;5043167;28;20457;-79
2022/10/30 03:20:14;;;;;;;0.80;0.80;;;;;;;;;;5067475;28;20458;-78
2022/10/30 03:22:43;;;;;;;0.77;0.70;;;;;;;;;;5065819;28;20490;-77
2022/10/30 03:25:12;;;;;;;2.20;2.10;;;;;;;;;;5042393;28;20440;-78
2022/10/30 03:27:40;;;;;;;0.90;0.90;;;;;;;;;;5064554;28;20542;-79
2022/10/30 03:30:09;;;;;;;0.93;0.93;;;;;;;;;;5051005;28;20451;-79
2022/10/30 03:32:37;;;;;;;0.77;0.70;;;;;;;;;;5068201;28;20463;-78
2022/10/30 03:35:06;;;;;;;0.80;0.80;;;;;;;;;;5055864;28;20475;-78
2022/10/30 03:37:32;;;;;;;0.70;0.70;;;;;;;;;;5039502;28;20448;-76
2022/10/30 03:40:02;;;;;;;1.00;1.00;;;;;;;;;;5059428;28;20461;-77
2022/10/30 03:42:31;;;;;;;1.27;1.17;;;;;;;;;;5043174;28;20480;-77
2022/10/30 03:44:59;;;;;;;0.77;0.77;;;;;;;;;;5052824;28;21009;-78
2022/10/30 03:47:30;;;;;;;0.70;0.70;;;;;;;;;;5064048;28;20464;-77
2022/10/30 03:49:59;;;;;;;1.13;1.07;;;;;;;;;;5070439;28;20471;-77
2022/10/30 03:52:30;;;;;;;0.70;0.70;;;;;;;;;;5050696;28;20923;-77
2022/10/30 03:55:00;;;;;;;1.03;1.00;;;;;;;;;;5061481;28;21071;-77
2022/10/30 03:57:31;;;;;;;2.30;2.20;;;;;;;;;;5068232;28;20977;-77
2022/10/30 04:00:08;;;;;;;0.80;0.80;;;;;;;;;;5041580;28;20445;-77
2022/10/30 04:02:53;;;;;;;1.27;1.17;;;;;;;;;;5052964;28;20462;-78
2022/10/30 04:05:23;;;;;;;0.80;0.80;;;;;;;;;;5058621;28;20463;-78
2022/10/30 04:07:56;;;;;;;1.30;1.10;;;;;;;;;;5055948;28;20458;-78
2022/10/30 04:10:27;;;;;;;0.70;0.70;;;;;;;;;;5022521;28;20454;-78
2022/10/30 04:13:03;;;;;;;0.90;0.90;;;;;;;;;;5073945;28;21336;-77
2022/10/30 04:15:39;;;;;;;0.80;0.80;;;;;;;;;;5071939;28;20492;-79
2022/10/30 04:18:12;;;;;;;0.80;0.80;;;;;;;;;;5054168;28;20583;-78
2022/10/30 04:20:41;;;;;;;0.80;0.80;;;;;;;;;;5064877;28;20475;-77
2022/10/30 04:23:15;;;;;;;0.70;0.70;;;;;;;;;;5069406;28;20450;-75
2022/10/30 04:25:48;;;;;;;0.70;0.70;;;;;;;;;;5070824;28;20432;-78
2022/10/30 04:28:20;;;;;;;0.80;0.77;;;;;;;;;;5076719;28;20814;-79
2022/10/30 04:30:50;;;;;;;0.80;0.77;;;;;;;;;;5045076;28;20450;-77
2022/10/30 04:33:20;;;;;;;3.13;2.23;;;;;;;;;;5050787;28;20456;-76
2022/10/30 04:35:50;;;;;;;0.80;0.80;;;;;;;;;;5045809;28;20824;-77
2022/10/30 04:38:21;;;;;;;0.80;0.70;;;;;;;;;;5059027;28;20537;-76
2022/10/30 04:40:50;;;;;;;0.70;0.70;;;;;;;;;;5052051;28;20452;-77
2022/10/30 04:43:19;;;;;;;1.10;1.00;;;;;;;;;;5041780;28;20465;-77
2022/10/30 04:45:51;;;;;;;1.30;1.20;;;;;;;;;;5060651;28;20452;-78
2022/10/30 04:48:20;;;;;;;0.70;0.60;;;;;;;;;;5049524;28;20454;-76
2022/10/30 04:50:47;;;;;;;0.87;0.87;;;;;;;;;;5065862;28;21024;-75
2022/10/30 04:53:22;;;;;;;1.73;1.27;;;;;;;;;;5043601;28;20440;-76
2022/10/30 04:55:54;;;;;;;0.80;0.80;;;;;;;;;;5047909;28;21015;-77
2022/10/30 04:58:21;;;;;;;0.70;0.70;;;;;;;;;;5071580;28;20444;-77
2022/10/30 05:00:59;;;;;;;1.20;1.10;;;;;;;;;;5060216;28;21087;-77
2022/10/30 05:03:30;;;;;;;0.80;0.80;;;;;;;;;;5060048;28;20456;-75
2022/10/30 05:05:59;;;;;;;0.80;0.80;;;;;;;;;;5057091;28;20578;-75
2022/10/30 05:08:29;;;;;;;0.80;0.80;;;;;;;;;;5059407;28;20443;-75
2022/10/30 05:10:58;;;;;;;1.30;0.97;;;;;;;;;;5069320;28;20529;-77
2022/10/30 05:13:28;;;;;;;1.00;1.00;;;;;;;;;;5049555;28;20541;-77
2022/10/30 05:15:56;;;;;;;0.80;0.80;;;;;;;;;;5049553;28;20494;-78
2022/10/30 05:18:23;;;;;;;0.70;0.70;;;;;;;;;;5065023;28;20485;-78
2022/10/30 05:20:51;;;;;;;0.70;0.70;;;;;;;;;;5063740;28;21013;-77
2022/10/30 05:23:17;;;;;;;0.70;0.70;;;;;;;;;;5064358;28;20460;-78
2022/10/30 05:25:44;;;;;;;2.20;1.47;;;;;;;;;;5060678;28;20780;-76
2022/10/30 05:28:13;;;;;;;1.47;1.27;;;;;;;;;;5065382;28;20456;-78
2022/10/30 05:30:44;;;;;;;0.60;0.60;;;;;;;;;;5055833;28;20829;-78
2022/10/30 05:33:29;;;;;;;0.87;0.83;;;;;;;;;;5043380;28;20805;-74
2022/10/30 05:35:58;;;;;;;0.60;0.60;;;;;;;;;;5058830;28;20837;-78
2022/10/30 05:38:27;;;;;;;0.70;0.70;;;;;;;;;;5044650;28;20812;-78
2022/10/30 05:40:54;;;;;;;3.27;1.17;;;;;;;;;;5048870;28;20442;-76
2022/10/30 05:43:21;;;;;;;0.70;0.70;;;;;;;;;;5048705;28;20459;-77
2022/10/30 05:45:49;;;;;;;0.70;0.70;;;;;;;;;;5079760;28;20539;-78
2022/10/30 05:48:17;;;;;;;0.70;0.70;;;;;;;;;;5051022;28;20901;-77
2022/10/30 05:50:45;;;;;;;0.70;0.67;;;;;;;;;;5069238;28;20539;-76
2022/10/30 05:53:27;;;;;;;0.90;0.90;;;;;;;;;;5052344;28;20460;-79
2022/10/30 05:55:55;;;;;;;0.70;0.70;;;;;;;;;;5049285;28;20470;-77
2022/10/30 05:58:24;;;;;;;0.70;0.70;;;;;;;;;;5074520;28;20494;-77
2022/10/30 06:00:53;;;;;;;0.70;0.70;;;;;;;;;;5064263;28;20450;-77
2022/10/30 06:03:33;;;;;;;0.80;0.80;;;;;;;;;;5044444;28;20435;-78
2022/10/30 06:06:01;;;;;;;0.70;0.63;;;;;;;;;;5044818;28;20468;-78
2022/10/30 06:08:30;;;;;;;0.80;0.80;;;;;;;;;;5079013;28;20441;-78
2022/10/30 06:11:02;;;;;;;0.70;0.70;;;;;;;;;;5047092;28;20499;-78
2022/10/30 06:13:40;;;;;;;0.70;0.70;;;;;;;;;;5067106;28;20446;-77
2022/10/30 06:16:11;;;;;;;0.80;0.80;;;;;;;;;;5047515;28;20477;-77
2022/10/30 06:19:13;;;;;;;0.70;0.60;;;;;;;;;;4993253;28;21537;-78
2022/10/30 06:21:46;;;;;;;0.90;0.90;;;;;;;;;;5055596;28;20480;-77
2022/10/30 06:24:19;;;;;;;0.80;0.80;;;;;;;;;;5087267;28;20431;-77
2022/10/30 06:27:21;;;;;;;0.70;0.63;;;;;;;;;;5073985;28;20668;-78
2022/10/30 06:29:48;;;;;;;0.80;0.80;;;;;;;;;;5072281;28;20456;-76
2022/10/30 06:32:16;;;;;;;3.60;1.33;;;;;;;;;;5054086;28;20515;-77
2022/10/30 06:34:44;;;;;;;0.60;0.60;;;;;;;;;;5042107;28;20469;-78
2022/10/30 06:37:13;;;;;;;0.63;0.60;;;;;;;;;;5051883;28;20481;-78
2022/10/30 06:39:41;;;;;;;0.70;0.63;;;;;;;;;;5053173;28;20454;-76
2022/10/30 06:42:27;;;;;;;0.90;0.90;;;;;;;;;;5072819;28;20773;-78
2022/10/30 06:45:20;;;;;;;0.70;0.70;;;;;;;;;;5066043;28;20460;-77
2022/10/30 06:47:47;;;;;;;0.70;0.70;;;;;;;;;;5070019;28;20490;-79
2022/10/30 06:50:15;;;;;;;0.77;0.77;;;;;;;;;;5060776;28;20847;-78
2022/10/30 06:52:43;;;;;;;0.70;0.70;;;;;;;;;;5064423;28;20446;-79
2022/10/30 06:55:11;;;;;;;0.83;0.80;;;;;;;;;;5064969;28;20468;-79
2022/10/30 06:57:58;;;;;;;0.70;0.70;;;;;;;;;;5025203;28;20951;-78
2022/10/30 07:00:44;;;;;;;1.10;1.00;;;;;;;;;;5074234;28;20424;-80
2022/10/30 07:03:34;;;;;;;0.70;0.70;;;;;;;;;;5054623;28;20446;-78
2022/10/30 07:06:01;;;;;;;0.70;0.60;;;;;;;;;;5069764;28;20462;-81
2022/10/30 07:08:27;;;;;;;1.27;1.17;;;;;;;;;;5067220;28;20600;-80
2022/10/30 07:10:57;;;;;;;2.00;1.33;;;;;;;;;;5042048;28;20459;-78
2022/10/30 07:13:24;;;;;;;0.70;0.70;;;;;;;;;;5076358;28;20448;-79
2022/10/30 07:16:00;;;;;;;0.70;0.70;;;;;;;;;;5055533;28;20497;-80
2022/10/30 07:18:33;;;;;;;0.70;0.70;;;;;;;;;;5080525;28;20440;-80
2022/10/30 07:21:01;;;;;;;0.70;0.70;;;;;;;;;;5076666;28;20468;-80
2022/10/30 07:23:30;;;;;;;0.80;0.80;;;;;;;;;;5051023;28;20545;-82
2022/10/30 07:26:10;;;;;;;0.97;0.90;;;;;;;;;;5052060;28;20874;-82
2022/10/30 07:28:44;;;;;;;0.70;0.70;;;;;;;;;;5067258;28;20848;-81
2022/10/30 07:31:13;;;;;;;1.00;0.90;;;;;;;;;;5086972;28;20499;-83
2022/10/30 07:34:21;;;;;;;2.23;1.60;;;;;;;;;;5053101;28;20438;-83
2022/10/30 07:37:08;;;;;;;0.70;0.70;;;;;;;;;;5071515;28;20974;-81
2022/10/30 07:39:47;;;;;;;0.80;0.80;;;;;;;;;;5068807;28;20935;-81
2022/10/30 07:42:34;;;;;;;1.87;1.10;;;;;;;;;;5090668;28;20453;-82
2022/10/30 07:45:19;;;;;;;0.60;0.60;;;;;;;;;;5090236;28;20510;-81
2022/10/30 07:48:06;;;;;;;0.90;0.90;;;;;;;;;;5078857;28;20561;-82
2022/10/30 07:50:41;;;;;;;0.60;0.60;;;;;;;;;;5070306;28;20493;-82
2022/10/30 07:53:07;;;;;;;0.60;0.60;;;;;;;;;;5051983;28;20468;-82
2022/10/30 07:55:34;;;;;;;0.80;0.80;;;;;;;;;;5050842;28;20549;-81
2022/10/30 07:58:14;;;;;;;0.70;0.70;;;;;;;;;;5064649;28;20457;-81
2022/10/30 08:01:02;;;;;;;0.97;0.97;;;;;;;;;;5083361;28;20430;-80
2022/10/30 08:03:31;;;;;;;1.40;1.30;;;;;;;;;;5048942;28;20454;-83
2022/10/30 08:06:23;;;;;;;0.70;0.70;;;;;;;;;;5066461;28;20585;-81
2022/10/30 08:08:53;;;;;;;0.70;0.60;;;;;;;;;;5075872;28;20450;-82
2022/10/30 08:11:23;;;;;;;0.80;0.80;;;;;;;;;;5076402;28;20435;-82
2022/10/30 08:13:53;;;;;;;0.70;0.70;;;;;;;;;;5070606;28;20450;-82
2022/10/30 08:16:21;;;;;;;0.73;0.73;;;;;;;;;;5062266;28;20476;-83
2022/10/30 08:18:49;;;;;;;0.70;0.70;;;;;;;;;;5063645;28;20876;-82
2022/10/30 08:21:18;;;;;;;1.93;1.43;;;;;;;;;;5070244;28;20473;-83
2022/10/30 08:23:55;;;;;;;0.77;0.77;;;;;;;;;;5059804;28;20450;-81
2022/10/30 08:26:25;;;;;;;0.70;0.70;;;;;;;;;;5065382;28;20453;-83
2022/10/30 08:28:53;;;;;;;0.70;0.67;;;;;;;;;;5054388;28;20495;-83
2022/10/30 08:31:22;;;;;;;0.70;0.70;;;;;;;;;;5053207;28;20508;-84
2022/10/30 08:34:00;;;;;;;0.70;0.67;;;;;;;;;;5063995;28;20434;-80
2022/10/30 08:36:34;;;;;;;0.70;0.60;;;;;;;;;;5043661;28;21006;-81
2022/10/30 08:39:02;;;;;;;1.00;0.90;;;;;;;;;;5058613;28;20481;-80
2022/10/30 08:41:40;;;;;;;0.70;0.70;;;;;;;;;;5057071;28;20784;-82
2022/10/30 08:44:10;;;;;;;0.70;0.70;;;;;;;;;;5066732;28;20553;-79
2022/10/30 08:46:55;;;;;;;0.70;0.70;;;;;;;;;;5070982;28;20503;-79
2022/10/30 08:49:23;;;;;;;0.70;0.70;;;;;;;;;;5049241;28;20987;-78
2022/10/30 08:51:54;;;;;;;2.23;2.10;;;;;;;;;;5049770;28;21085;-80
2022/10/30 08:54:22;;;;;;;0.70;0.70;;;;;;;;;;5048039;28;21067;-80
2022/10/30 08:56:49;;;;;;;1.03;0.93;;;;;;;;;;5061649;28;20568;-80
2022/10/30 08:59:17;;;;;;;0.80;0.70;;;;;;;;;;5069682;28;20957;-80
2022/10/30 09:01:49;;;;;;;0.80;0.80;;;;;;;;;;5082284;28;20462;-80
2022/10/30 09:04:18;;;;;;;0.70;0.70;;;;;;;;;;5058247;28;20928;-82
2022/10/30 09:07:10;;;;;;;0.70;0.70;;;;;;;;;;5089129;28;20458;-79
2022/10/30 09:10:01;;;;;;;1.10;1.00;;;;;;;;;;5073120;28;20456;-81
2022/10/30 09:12:31;;;;;;;3.27;1.30;;;;;;;;;;5063320;28;20536;-83
2022/10/30 09:15:01;;;;;;;0.80;0.80;;;;;;;;;;5071357;28;20449;-81
2022/10/30 09:17:31;;;;;;;3.33;1.87;;;;;;;;;;5068216;28;20442;-80
2022/10/30 09:19:58;;;;;;;0.70;0.70;;;;;;;;;;5072964;28;20420;-81
2022/10/30 09:22:33;;;;;;;0.83;0.83;;;;;;;;;;5053220;28;20424;-82
2022/10/30 09:25:01;;;;;;;0.70;0.60;;;;;;;;;;5069615;28;20537;-83
2022/10/30 09:27:47;;;;;;;0.80;0.70;;;;;;;;;;5051053;28;20449;-80
2022/10/30 09:30:21;;;;;;;0.80;0.80;;;;;;;;;;5065818;28;20447;-81
2022/10/30 09:32:55;;;;;;;0.70;0.70;;;;;;;;;;5087567;28;20449;-80
2022/10/30 09:35:37;;;;;;;1.27;1.17;;;;;;;;;;5074679;28;20485;-79
2022/10/30 09:38:04;;;;;;;0.80;0.70;;;;;;;;;;5074142;28;20446;-80
2022/10/30 09:40:40;;;;;;;0.77;0.63;;;;;;;;;;5052723;28;20446;-79
2022/10/30 09:43:14;;;;;;;0.80;0.70;;;;;;;;;;5045681;28;20511;-81
2022/10/30 09:45:56;;;;;;;0.93;0.80;;;;;;;;;;5076841;28;20483;-81
2022/10/30 09:48:35;;;;;;;0.80;0.70;;;;;;;;;;5078911;28;20442;-79
2022/10/30 09:51:14;;;;;;;1.00;0.80;;;;;;;;;;5058026;28;20519;-80
2022/10/30 09:53:48;;;;;;;0.90;0.70;;;;;;;;;;5071279;28;20450;-80
2022/10/30 09:56:26;;;;;;;1.63;1.07;;;;;;;;;;5060542;28;20550;-80
2022/10/30 09:58:59;;;;;;;0.80;0.80;;;;;;;;;;5061099;28;20438;-81
2022/10/30 10:01:32;;;;;;;1.83;1.67;;;;;;;;;;5052438;28;20450;-81
2022/10/30 10:04:07;;;;;;;1.00;0.90;;;;;;;;;;5081566;28;20456;-81
2022/10/30 10:06:47;;;;;;;1.33;1.13;;;;;;;;;;5095894;28;20453;-82
2022/10/30 10:09:37;;;;;;;0.70;0.60;;;;;;;;;;5090088;28;20466;-81
2022/10/30 10:12:27;;;;;;;1.03;1.03;;;;;;;;;;5082993;28;20462;-79
2022/10/30 10:14:55;;;;;;;1.30;1.20;;;;;;;;;;5100271;28;20427;-79
2022/10/30 10:17:27;;;;;;;1.10;1.00;;;;;;;;;;5083589;28;20532;-79
2022/10/30 10:20:00;;;;;;;1.27;1.17;;;;;;;;;;5102037;28;20433;-81
2022/10/30 10:22:33;;;;;;;0.80;0.70;;;;;;;;;;5063384;28;20446;-80
2022/10/30 10:25:01;;;;;;;0.70;0.60;;;;;;;;;;5085518;28;20456;-79
2022/10/30 10:27:36;;;;;;;0.90;0.70;;;;;;;;;;5097684;28;20458;-82
2022/10/30 10:30:03;;;;;;;2.63;1.80;;;;;;;;;;5086052;28;20505;-81
2022/10/30 10:32:48;;;;;;;0.70;0.60;;;;;;;;;;5080743;28;20463;-79
2022/10/30 10:35:32;;;;;;;0.70;0.60;;;;;;;;;;5078506;28;20569;-81
2022/10/30 10:38:05;;;;;;;1.10;1.00;;;;;;;;;;5084609;28;20477;-81
2022/10/30 10:40:38;;;;;;;1.13;0.70;;;;;;;;;;5062197;28;20446;-80
2022/10/30 10:43:10;;;;;;;0.73;0.63;;;;;;;;;;5077150;28;20481;-77
2022/10/30 10:45:42;;;;;;;0.90;0.80;;;;;;;;;;5092356;28;20435;-80
2022/10/30 10:48:27;;;;;;;0.80;0.70;;;;;;;;;;5076768;28;20549;-80
2022/10/30 10:50:59;;;;;;;0.83;0.80;;;;;;;;;;5048585;28;20540;-80
2022/10/30 10:53:27;;;;;;;1.63;0.90;;;;;;;;;;5067766;28;20455;-80
2022/10/30 10:55:56;;;;;;;0.80;0.77;;;;;;;;;;5076284;28;20474;-79
2022/10/30 10:58:26;;;;;;;1.20;1.10;;;;;;;;;;5053421;28;20935;-81
2022/10/30 11:00:55;;;;;;;0.80;0.70;;;;;;;;;;5077299;28;20557;-81
2022/10/30 11:03:24;;;;;;;1.90;0.90;;;;;;;;;;5064859;28;20450;-81
2022/10/30 11:05:52;;;;;;;1.20;1.10;;;;;;;;;;5071405;28;20450;-78
2022/10/30 11:08:24;;;;;;;1.30;1.20;;;;;;;;;;5077760;28;20473;-80
2022/10/30 11:10:55;;;;;;;0.73;0.70;;;;;;;;;;5067310;28;20440;-80
2022/10/30 11:13:22;;;;;;;1.00;0.90;;;;;;;;;;5067823;28;20553;-80
2022/10/30 11:15:53;;;;;;;0.77;0.70;;;;;;;;;;5071038;28;20610;-79
2022/10/30 11:18:20;;;;;;;0.80;0.73;;;;;;;;;;5059243;28;20462;-78
2022/10/30 11:20:51;;;;;;;0.70;0.60;;;;;;;;;;5061261;28;20995;-78
2022/10/30 11:23:44;;;;;;;8.43;1.17;;;;;;;;;;5082292;28;20820;-79
2022/10/30 11:26:25;;;;;;;0.90;0.90;;;;;;;;;;5067749;28;20460;-79
2022/10/30 11:28:55;;;;;;;1.30;1.20;;;;;;;;;;5064288;28;20440;-80
2022/10/30 11:31:23;;;;;;;0.80;0.70;;;;;;;;;;5091173;28;20496;-78
2022/10/30 11:33:50;;;;;;;0.70;0.60;;;;;;;;;;5075121;28;20447;-79
2022/10/30 11:36:21;;;;;;;0.90;0.90;;;;;;;;;;5090219;28;20470;-79
2022/10/30 11:38:49;;;;;;;0.90;0.77;;;;;;;;;;5077959;28;20458;-79
2022/10/30 11:41:17;;;;;;;0.80;0.70;;;;;;;;;;5068305;28;20427;-79
2022/10/30 11:43:44;;;;;;;0.73;0.63;;;;;;;;;;5077529;28;20457;-81
2022/10/30 11:46:18;;;;;;;0.80;0.80;;;;;;;;;;5059009;28;20443;-79
2022/10/30 11:48:48;;;;;;;0.80;0.77;;;;;;;;;;5068548;28;20427;-80
2022/10/30 11:51:28;;;;;;;0.80;0.70;;;;;;;;;;5071000;28;20457;-78
2022/10/30 11:53:56;;;;;;;8.80;0.90;;;;;;;;;;5084857;28;20441;-78
2022/10/30 11:56:23;;;;;;;1.30;1.20;;;;;;;;;;5080891;28;20500;-79
2022/10/30 11:58:51;;;;;;;0.73;0.67;;;;;;;;;;5071286;28;20439;-78
2022/10/30 12:01:21;;;;;;;0.70;0.60;;;;;;;;;;5068143;28;20497;-78
2022/10/30 12:03:49;;;;;;;0.70;0.70;;;;;;;;;;5068909;28;20854;-79
2022/10/30 12:06:17;;;;;;;0.70;0.63;;;;;;;;;;5054589;28;20467;-78
2022/10/30 12:08:58;;;;;;;1.07;0.97;;;;;;;;;;5061140;28;20461;-81
2022/10/30 12:11:26;;;;;;;1.77;1.43;;;;;;;;;;5062450;28;20518;-79
2022/10/30 12:13:53;;;;;;;1.23;1.13;;;;;;;;;;5075773;28;20447;-78
2022/10/30 12:16:21;;;;;;;0.70;0.60;;;;;;;;;;5066292;28;20480;-79
2022/10/30 12:18:57;;;;;;;0.77;0.70;;;;;;;;;;5066388;28;20448;-78
2022/10/30 12:21:24;;;;;;;1.10;0.80;;;;;;;;;;5083302;28;20481;-77
2022/10/30 12:23:54;;;;;;;0.80;0.80;;;;;;;;;;5086744;28;20864;-80
2022/10/30 12:26:23;;;;;;;1.10;1.00;;;;;;;;;;5051316;28;20447;-80
2022/10/30 12:28:54;;;;;;;1.50;1.40;;;;;;;;;;5075738;28;20434;-79
2022/10/30 12:31:23;;;;;;;1.50;1.40;;;;;;;;;;5065872;28;20799;-79
2022/10/30 12:33:56;;;;;;;0.80;0.70;;;;;;;;;;5062637;28;20814;-79
2022/10/30 12:36:25;;;;;;;0.70;0.70;;;;;;;;;;5069087;28;20513;-80
2022/10/30 12:38:55;;;;;;;0.70;0.60;;;;;;;;;;5063197;28;20493;-78
2022/10/30 12:41:25;;;;;;;1.20;0.93;;;;;;;;;;5078857;28;20530;-78
2022/10/30 12:43:57;;;;;;;1.00;0.93;;;;;;;;;;5053583;28;20448;-80
2022/10/30 12:46:32;;;;;;;0.80;0.70;;;;;;;;;;5064790;28;20450;-79
2022/10/30 12:49:02;;;;;;;0.80;0.70;;;;;;;;;;5054474;28;20506;-80
2022/10/30 12:51:31;;;;;;;2.10;1.47;;;;;;;;;;5066124;28;20433;-78
2022/10/30 12:54:01;;;;;;;0.80;0.70;;;;;;;;;;5050491;28;20442;-79
2022/10/30 12:56:32;;;;;;;0.77;0.70;;;;;;;;;;5065443;28;20482;-79
2022/10/30 12:59:11;;;;;;;0.83;0.60;;;;;;;;;;5066586;28;20455;-80
2022/10/30 13:01:43;;;;;;;2.53;1.67;;;;;;;;;;5060797;28;20435;-81
2022/10/30 13:04:16;;;;;;;0.73;0.73;;;;;;;;;;5050737;28;20537;-79
2022/10/30 13:06:48;;;;;;;0.70;0.60;;;;;;;;;;5083322;28;20449;-79
2022/10/30 13:09:17;;;;;;;1.10;1.00;;;;;;;;;;5058583;28;20453;-79
2022/10/30 13:11:49;;;;;;;0.80;0.77;;;;;;;;;;5090348;28;20938;-80
2022/10/30 13:14:19;;;;;;;0.70;0.63;;;;;;;;;;5079004;28;20459;-80
2022/10/30 13:16:46;;;;;;;0.70;0.70;;;;;;;;;;5065677;28;20467;-80
2022/10/30 13:19:13;;;;;;;0.70;0.60;;;;;;;;;;5084483;28;20782;-79
2022/10/30 13:21:42;;;;;;;0.80;0.73;;;;;;;;;;5047214;28;20508;-81
2022/10/30 13:24:16;;;;;;;0.70;0.60;;;;;;;;;;5064017;28;20452;-81
2022/10/30 13:26:45;;;;;;;0.70;0.60;;;;;;;;;;5064424;28;20541;-79
2022/10/30 13:29:16;;;;;;;0.70;0.70;;;;;;;;;;5070218;28;20450;-83
2022/10/30 13:31:47;;;;;;;0.70;0.70;;;;;;;;;;5062179;28;20434;-79
2022/10/30 13:34:24;;;;;;;0.70;0.63;;;;;;;;;;5071575;28;20431;-79
2022/10/30 13:36:54;;;;;;;1.40;1.10;;;;;;;;;;5078712;28;21000;-80
2022/10/30 13:39:26;;;;;;;1.10;0.93;;;;;;;;;;5076715;28;20438;-80
2022/10/30 13:42:11;;;;;;;1.50;1.40;;;;;;;;;;5062468;28;20825;-79
2022/10/30 13:44:45;;;;;;;0.80;0.70;;;;;;;;;;5079540;28;20449;-80
2022/10/30 13:47:19;;;;;;;0.90;0.80;;;;;;;;;;5064173;28;20536;-80
2022/10/30 13:49:52;;;;;;;0.90;0.90;;;;;;;;;;5044584;28;20485;-79
2022/10/30 13:52:21;;;;;;;0.80;0.73;;;;;;;;;;5059707;28;20462;-79
2022/10/30 13:54:52;;;;;;;0.70;0.70;;;;;;;;;;5071156;28;20437;-79
2022/10/30 13:57:22;;;;;;;0.70;0.60;;;;;;;;;;5058647;28;20470;-80
2022/10/30 13:59:55;;;;;;;0.70;0.70;;;;;;;;;;5074902;28;20477;-80
2022/10/30 14:02:30;;;;;;;1.13;1.03;;;;;;;;;;5071660;28;20463;-80
2022/10/30 14:05:00;;;;;;;0.93;0.90;;;;;;;;;;5052152;28;20470;-79
2022/10/30 14:07:31;;;;;;;0.80;0.70;;;;;;;;;;5040435;28;20908;-79
2022/10/30 14:10:24;;;;;;;1.03;0.93;;;;;;;;;;5088130;28;20526;-78
2022/10/30 14:12:52;;;;;;;0.73;0.70;;;;;;;;;;5043951;28;20446;-79
2022/10/30 14:15:32;;;;;;;1.20;1.10;;;;;;;;;;5081963;28;20404;-78
2022/10/30 14:18:18;;;;;;;0.70;0.70;;;;;;;;;;5065722;28;20441;-78
2022/10/30 14:20:48;;;;;;;0.70;0.70;;;;;;;;;;5052926;28;20457;-79
2022/10/30 14:23:22;;;;;;;0.70;0.60;;;;;;;;;;5033767;28;20462;-78
2022/10/30 14:26:13;;;;;;;0.80;0.80;;;;;;;;;;5061028;28;20850;-78
2022/10/30 14:28:42;;;;;;;0.77;0.70;;;;;;;;;;5043301;28;20982;-77
2022/10/30 14:31:10;;;;;;;1.50;1.40;;;;;;;;;;5062681;28;20450;-77
2022/10/30 14:33:42;;;;;;;0.80;0.80;;;;;;;;;;5058707;28;20454;-77
2022/10/30 14:36:13;;;;;;;0.80;0.70;;;;;;;;;;5045104;28;20577;-78
2022/10/30 14:38:41;;;;;;;0.80;0.70;;;;;;;;;;5049013;28;20442;-78
2022/10/30 14:41:24;;;;;;;0.80;0.70;;;;;;;;;;5067143;28;20435;-77
2022/10/30 14:43:57;;;;;;;1.20;1.10;;;;;;;;;;5063367;28;20424;-80
2022/10/30 14:46:30;;;;;;;0.80;0.80;;;;;;;;;;5063823;28;20497;-79
2022/10/30 14:49:08;;;;;;;0.70;0.60;;;;;;;;;;5062722;28;20459;-79
2022/10/30 14:51:39;;;;;;;1.33;1.00;;;;;;;;;;5036045;28;20471;-79
2022/10/30 14:54:08;;;;;;;0.90;0.77;;;;;;;;;;5063330;28;20891;-78
2022/10/30 14:56:46;;;;;;;1.27;1.00;;;;;;;;;;5061153;28;20457;-80
2022/10/30 14:59:20;;;;;;;0.80;0.80;;;;;;;;;;5069621;28;20411;-77
2022/10/30 15:01:52;;;;;;;0.70;0.70;;;;;;;;;;5083222;28;20426;-78
2022/10/30 15:04:23;;;;;;;0.80;0.80;;;;;;;;;;5069458;28;20430;-77
2022/10/30 15:06:56;;;;;;;2.70;2.50;;;;;;;;;;5070329;28;20474;-79
2022/10/30 15:09:31;;;;;;;0.80;0.70;;;;;;;;;;5066805;28;20433;-79
2022/10/30 15:12:09;;;;;;;0.90;0.90;;;;;;;;;;5053561;28;20462;-79
2022/10/30 15:14:37;;;;;;;1.13;1.03;;;;;;;;;;5066233;28;20428;-79